createdAt,value
2018-12-23T00:00:46.415Z,89.67
2018-12-23T00:01:46.398Z,90.39
2018-12-23T00:02:46.387Z,90.18
2018-12-23T00:03:46.389Z,90.90
2018-12-23T00:04:46.388Z,91.00
2018-12-23T00:05:46.356Z,90.69
2018-12-23T00:06:46.344Z,89.36
2018-12-23T00:07:46.330Z,91.21
2018-12-23T00:08:46.320Z,90.80
2018-12-23T00:09:46.354Z,90.69
2018-12-23T00:10:46.298Z,90.18
2018-12-23T00:11:46.287Z,90.69
2018-12-23T00:12:46.276Z,90.80
2018-12-23T00:13:46.270Z,90.80
2018-12-23T00:14:46.296Z,91.11
2018-12-23T00:15:46.255Z,91.77
2018-12-23T00:16:46.231Z,91.56
2018-12-23T00:17:46.230Z,92.59
2018-12-23T00:18:46.212Z,92.90
2018-12-23T00:19:46.221Z,93.11
2018-12-23T00:20:46.189Z,93.01
2018-12-23T00:21:46.198Z,93.87
2018-12-23T00:22:46.165Z,94.13
2018-12-23T00:23:46.157Z,93.77
2018-12-23T00:24:46.179Z,94.28
2018-12-23T00:25:46.138Z,93.62
2018-12-23T00:26:46.123Z,93.87
2018-12-23T00:27:46.122Z,94.18
2018-12-23T00:28:46.099Z,94.59
2018-12-23T00:29:46.089Z,93.56
2018-12-23T00:30:46.102Z,95.00
2018-12-23T00:31:46.066Z,94.49
2018-12-23T00:32:46.055Z,93.56
2018-12-23T00:33:46.052Z,94.08
2018-12-23T00:34:46.032Z,94.38
2018-12-23T00:35:46.043Z,93.66
2018-12-23T00:36:46.013Z,93.87
2018-12-23T00:37:46.002Z,93.46
2018-12-23T00:38:45.987Z,93.56
2018-12-23T00:39:45.989Z,93.56
2018-12-23T00:40:45.994Z,93.56
2018-12-23T00:41:45.955Z,93.46
2018-12-23T00:42:45.944Z,93.66
2018-12-23T00:43:45.933Z,93.15
2018-12-23T00:44:45.924Z,93.56
2018-12-23T00:45:45.955Z,93.25
2018-12-23T00:46:45.900Z,93.35
2018-12-23T00:47:45.890Z,93.77
2018-12-23T00:48:45.880Z,93.66
2018-12-23T00:49:45.868Z,93.66
2018-12-23T00:50:45.877Z,93.87
2018-12-23T00:51:45.851Z,93.87
2018-12-23T00:52:45.834Z,94.12
2018-12-23T00:53:45.824Z,93.91
2018-12-23T00:54:45.810Z,93.60
2018-12-23T00:55:45.822Z,94.02
2018-12-23T00:56:45.793Z,93.66
2018-12-23T00:57:45.781Z,93.98
2018-12-23T00:58:45.797Z,93.77
2018-12-23T00:59:45.755Z,94.23
2018-12-23T01:00:45.766Z,94.08
2018-12-23T01:01:45.736Z,94.38
2018-12-23T01:02:45.724Z,94.84
2018-12-23T01:03:45.709Z,94.49
2018-12-23T01:04:45.713Z,94.80
2018-12-23T01:05:45.715Z,93.98
2018-12-23T01:06:45.686Z,94.12
2018-12-23T01:07:45.664Z,94.38
2018-12-23T01:08:45.662Z,94.38
2018-12-23T01:09:45.643Z,94.49
2018-12-23T01:10:45.679Z,93.98
2018-12-23T01:11:45.620Z,94.90
2018-12-23T01:12:45.610Z,94.90
2018-12-23T01:13:45.599Z,95.00
2018-12-23T01:14:45.589Z,94.80
2018-12-23T01:15:45.616Z,94.84
2018-12-23T01:16:45.576Z,94.28
2018-12-23T01:17:45.553Z,94.59
2018-12-23T01:18:45.543Z,95.25
2018-12-23T01:19:45.534Z,95.10
2018-12-23T01:20:45.543Z,95.00
2018-12-23T01:21:45.509Z,95.42
2018-12-23T01:22:45.507Z,95.83
2018-12-23T01:23:45.486Z,95.10
2018-12-23T01:24:45.477Z,95.10
2018-12-23T01:25:45.490Z,95.10
2018-12-23T01:26:45.460Z,94.90
2018-12-23T01:27:45.442Z,94.80
2018-12-23T01:28:45.459Z,95.10
2018-12-23T01:29:45.421Z,95.42
2018-12-23T01:30:45.438Z,95.83
2018-12-23T01:31:45.397Z,95.62
2018-12-23T01:32:45.387Z,96.03
2018-12-23T01:33:45.378Z,95.62
2018-12-23T01:34:45.387Z,95.42
2018-12-23T01:35:45.353Z,95.42
2018-12-23T01:36:45.367Z,94.90
2018-12-23T01:37:45.332Z,95.21
2018-12-23T01:38:45.319Z,95.17
2018-12-23T01:39:45.312Z,94.90
2018-12-23T01:40:45.322Z,94.90
2018-12-23T01:41:45.314Z,95.10
2018-12-23T01:42:45.279Z,94.85
2018-12-23T01:43:45.265Z,94.90
2018-12-23T01:44:45.257Z,95.31
2018-12-23T01:45:45.254Z,95.52
2018-12-23T01:46:45.265Z,95.52
2018-12-23T01:47:45.220Z,95.62
2018-12-23T01:48:45.211Z,95.93
2018-12-23T01:49:45.201Z,95.83
2018-12-23T01:50:45.187Z,95.31
2018-12-23T01:51:45.201Z,95.00
2018-12-23T01:52:45.191Z,94.70
2018-12-23T01:53:45.153Z,94.59
2018-12-23T01:54:45.142Z,95.10
2018-12-23T01:55:45.140Z,94.96
2018-12-23T01:56:45.151Z,94.55
2018-12-23T01:57:45.110Z,94.45
2018-12-23T01:58:45.108Z,94.55
2018-12-23T01:59:45.194Z,94.65
2018-12-23T02:00:45.083Z,94.55
2018-12-23T02:01:45.094Z,94.55
2018-12-23T02:02:45.058Z,94.65
2018-12-23T02:03:45.046Z,94.65
2018-12-23T02:04:45.052Z,94.90
2018-12-23T02:05:46.103Z,94.76
2018-12-23T02:06:45.034Z,95.00
2018-12-23T02:07:45.000Z,95.21
2018-12-23T02:08:44.992Z,94.96
2018-12-23T02:09:44.985Z,94.24
2018-12-23T02:10:44.966Z,94.85
2018-12-23T02:11:44.979Z,94.96
2018-12-23T02:12:44.943Z,95.21
2018-12-23T02:13:44.933Z,94.76
2018-12-23T02:14:44.927Z,94.85
2018-12-23T02:15:44.933Z,95.06
2018-12-23T02:16:44.929Z,94.85
2018-12-23T02:17:44.889Z,94.96
2018-12-23T02:18:44.878Z,94.76
2018-12-23T02:19:44.866Z,95.06
2018-12-23T02:20:44.856Z,94.96
2018-12-23T02:21:44.889Z,95.06
2018-12-23T02:22:44.834Z,95.83
2018-12-23T02:23:44.831Z,95.27
2018-12-23T02:24:44.818Z,95.21
2018-12-23T02:25:44.800Z,95.10
2018-12-23T02:26:44.812Z,94.90
2018-12-23T02:27:44.841Z,95.42
2018-12-23T02:28:44.766Z,95.52
2018-12-23T02:29:44.755Z,96.03
2018-12-23T02:30:44.749Z,94.85
2018-12-23T02:31:44.759Z,95.52
2018-12-23T02:32:44.732Z,95.62
2018-12-23T02:33:44.719Z,95.73
2018-12-23T02:34:44.703Z,95.31
2018-12-23T02:35:44.689Z,95.48
2018-12-23T02:36:44.703Z,95.62
2018-12-23T02:37:44.668Z,95.93
2018-12-23T02:38:44.677Z,94.90
2018-12-23T02:39:44.654Z,95.93
2018-12-23T02:40:44.651Z,95.73
2018-12-23T02:41:44.651Z,95.73
2018-12-23T02:42:44.613Z,95.52
2018-12-23T02:43:44.615Z,95.73
2018-12-23T02:44:44.611Z,95.83
2018-12-23T02:45:44.591Z,95.62
2018-12-23T02:46:44.619Z,95.73
2018-12-23T02:47:44.559Z,95.73
2018-12-23T02:48:44.548Z,94.90
2018-12-23T02:49:44.540Z,95.93
2018-12-23T02:50:44.527Z,95.93
2018-12-23T02:51:44.538Z,95.52
2018-12-23T02:52:44.518Z,95.83
2018-12-23T02:53:44.491Z,95.73
2018-12-23T02:54:44.480Z,95.52
2018-12-23T02:55:44.479Z,95.52
2018-12-23T02:56:44.483Z,95.52
2018-12-23T02:57:44.454Z,95.62
2018-12-23T02:58:44.451Z,95.83
2018-12-23T02:59:44.431Z,95.73
2018-12-23T03:00:44.416Z,95.42
2018-12-23T03:01:44.452Z,95.93
2018-12-23T03:02:44.392Z,95.73
2018-12-23T03:03:44.390Z,95.62
2018-12-23T03:04:44.392Z,95.42
2018-12-23T03:05:44.360Z,95.67
2018-12-23T03:06:44.367Z,95.73
2018-12-23T03:07:44.372Z,95.52
2018-12-23T03:08:44.330Z,95.21
2018-12-23T03:09:44.323Z,95.56
2018-12-23T03:10:44.336Z,95.42
2018-12-23T03:11:44.297Z,95.73
2018-12-23T03:12:44.307Z,95.21
2018-12-23T03:13:44.293Z,95.73
2018-12-23T03:14:44.262Z,95.73
2018-12-23T03:15:44.248Z,95.77
2018-12-23T03:16:44.249Z,95.62
2018-12-23T03:17:44.247Z,95.56
2018-12-23T03:18:44.220Z,95.52
2018-12-23T03:19:44.202Z,95.56
2018-12-23T03:20:44.191Z,95.62
2018-12-23T03:21:44.179Z,95.56
2018-12-23T03:22:44.215Z,95.73
2018-12-23T03:23:44.158Z,95.62
2018-12-23T03:24:44.155Z,95.93
2018-12-23T03:25:44.137Z,95.73
2018-12-23T03:26:44.126Z,95.73
2018-12-23T03:27:44.138Z,95.52
2018-12-23T03:28:44.135Z,95.73
2018-12-23T03:29:44.105Z,95.83
2018-12-23T03:30:44.083Z,94.90
2018-12-23T03:31:44.074Z,94.59
2018-12-23T03:32:44.097Z,94.70
2018-12-23T03:33:44.048Z,95.10
2018-12-23T03:34:44.050Z,94.90
2018-12-23T03:35:44.024Z,95.10
2018-12-23T03:36:44.012Z,94.80
2018-12-23T03:37:44.025Z,95.00
2018-12-23T03:38:43.989Z,95.00
2018-12-23T03:39:43.983Z,94.70
2018-12-23T03:40:43.994Z,94.28
2018-12-23T03:41:43.957Z,95.10
2018-12-23T03:42:43.972Z,94.59
2018-12-23T03:43:43.938Z,94.38
2018-12-23T03:44:43.930Z,94.70
2018-12-23T03:45:43.914Z,94.70
2018-12-23T03:46:43.922Z,95.05
2018-12-23T03:47:43.922Z,94.70
2018-12-23T03:48:43.881Z,95.15
2018-12-23T03:49:43.874Z,95.93
2018-12-23T03:50:43.855Z,95.98
2018-12-23T03:51:43.849Z,95.25
2018-12-23T03:52:43.906Z,95.10
2018-12-23T03:53:43.824Z,95.52
2018-12-23T03:54:43.813Z,95.62
2018-12-23T03:55:43.804Z,95.10
2018-12-23T03:56:43.791Z,95.98
2018-12-23T03:57:43.803Z,95.52
2018-12-23T03:58:43.776Z,94.84
2018-12-23T03:59:43.755Z,95.42
2018-12-23T04:00:43.751Z,95.00
2018-12-23T04:01:43.741Z,95.21
2018-12-23T04:02:43.746Z,95.00
2018-12-23T04:03:43.710Z,94.90
2018-12-23T04:05:19.467Z,94.70
2018-12-23T04:05:43.689Z,94.90
2018-12-23T04:06:43.679Z,94.28
2018-12-23T04:07:43.686Z,95.00
2018-12-23T04:08:43.657Z,94.49
2018-12-23T04:09:43.653Z,95.00
2018-12-23T04:10:43.633Z,95.00
2018-12-23T04:11:43.620Z,94.70
2018-12-23T04:12:43.638Z,94.90
2018-12-23T04:13:43.608Z,95.00
2018-12-23T04:14:43.587Z,94.90
2018-12-23T04:15:43.585Z,95.00
2018-12-23T04:16:43.572Z,94.80
2018-12-23T04:17:43.575Z,94.70
2018-12-23T04:18:43.543Z,94.59
2018-12-23T04:19:43.532Z,94.70
2018-12-23T04:20:43.521Z,95.00
2018-12-23T04:21:43.541Z,95.00
2018-12-23T04:22:43.528Z,94.43
2018-12-23T04:23:43.492Z,94.84
2018-12-23T04:24:43.474Z,95.00
2018-12-23T04:25:43.464Z,95.15
2018-12-23T04:26:43.454Z,94.90
2018-12-23T04:27:43.469Z,95.00
2018-12-23T04:28:43.439Z,95.15
2018-12-23T04:29:43.418Z,94.80
2018-12-23T04:30:43.410Z,94.84
2018-12-23T04:31:43.397Z,95.00
2018-12-23T04:32:43.409Z,95.05
2018-12-23T04:33:43.375Z,94.80
2018-12-23T04:34:43.400Z,93.98
2018-12-23T04:35:43.352Z,94.80
2018-12-23T04:36:43.341Z,94.80
2018-12-23T04:37:43.355Z,94.70
2018-12-23T04:38:43.333Z,94.70
2018-12-23T04:39:43.308Z,93.56
2018-12-23T04:40:43.295Z,93.87
2018-12-23T04:41:43.298Z,93.46
2018-12-23T04:42:43.297Z,94.02
2018-12-23T04:43:43.262Z,93.87
2018-12-23T04:44:43.259Z,93.91
2018-12-23T04:45:43.244Z,93.87
2018-12-23T04:46:43.238Z,94.02
2018-12-23T04:47:43.263Z,94.23
2018-12-23T04:48:43.208Z,93.98
2018-12-23T04:49:43.196Z,94.53
2018-12-23T04:50:43.186Z,93.91
2018-12-23T04:51:43.191Z,93.91
2018-12-23T04:52:43.474Z,94.70
2018-12-23T04:53:43.180Z,94.23
2018-12-23T04:54:43.140Z,94.23
2018-12-23T04:55:43.132Z,93.87
2018-12-23T04:56:43.118Z,93.66
2018-12-23T04:57:43.109Z,93.46
2018-12-23T04:58:43.133Z,93.56
2018-12-23T04:59:43.098Z,93.50
2018-12-23T05:00:43.084Z,93.56
2018-12-23T05:01:43.063Z,93.60
2018-12-23T05:02:43.051Z,93.60
2018-12-23T05:03:43.306Z,93.66
2018-12-23T05:04:43.031Z,93.98
2018-12-23T05:05:43.044Z,93.46
2018-12-23T05:06:43.709Z,93.46
2018-12-23T05:07:42.997Z,92.53
2018-12-23T05:08:43.007Z,93.15
2018-12-23T05:09:42.973Z,92.94
2018-12-23T05:10:42.961Z,93.09
2018-12-23T05:11:42.967Z,93.15
2018-12-23T05:12:42.939Z,93.15
2018-12-23T05:13:42.962Z,93.71
2018-12-23T05:14:44.741Z,93.25
2018-12-23T05:15:42.932Z,92.74
2018-12-23T05:16:42.898Z,93.05
2018-12-23T05:17:42.902Z,92.88
2018-12-23T05:18:42.877Z,92.27
2018-12-23T05:19:42.889Z,92.94
2018-12-23T05:20:42.849Z,92.84
2018-12-23T05:21:42.842Z,92.33
2018-12-23T05:22:42.831Z,91.81
2018-12-23T05:23:42.844Z,92.16
2018-12-23T05:24:42.829Z,92.68
2018-12-23T05:25:42.797Z,92.16
2018-12-23T05:26:42.783Z,93.05
2018-12-23T05:27:42.776Z,92.27
2018-12-23T05:28:42.763Z,92.16
2018-12-23T05:29:42.800Z,91.85
2018-12-23T05:30:42.741Z,92.27
2018-12-23T05:31:42.728Z,92.06
2018-12-23T05:32:42.716Z,92.16
2018-12-23T05:33:42.706Z,92.02
2018-12-23T05:34:42.721Z,91.60
2018-12-23T05:35:42.684Z,91.71
2018-12-23T05:36:42.707Z,91.64
2018-12-23T05:37:42.662Z,92.06
2018-12-23T05:38:42.657Z,92.16
2018-12-23T05:39:42.664Z,91.44
2018-12-23T05:40:42.628Z,92.06
2018-12-23T05:41:42.617Z,92.06
2018-12-23T05:42:42.625Z,91.64
2018-12-23T05:43:42.595Z,91.54
2018-12-23T05:44:42.616Z,91.75
2018-12-23T05:45:42.575Z,91.40
2018-12-23T05:46:42.561Z,91.64
2018-12-23T05:47:42.552Z,91.40
2018-12-23T05:48:42.555Z,91.50
2018-12-23T05:49:42.529Z,91.50
2018-12-23T05:50:42.548Z,90.92
2018-12-23T05:51:42.506Z,90.99
2018-12-23T05:52:42.497Z,91.03
2018-12-23T05:53:42.485Z,90.51
2018-12-23T05:54:42.484Z,91.24
2018-12-23T05:55:42.483Z,90.72
2018-12-23T05:56:42.450Z,90.31
2018-12-23T05:57:42.437Z,90.67
2018-12-23T05:58:42.429Z,91.03
2018-12-23T05:59:42.416Z,90.67
2018-12-23T06:00:42.444Z,91.13
2018-12-23T06:01:42.394Z,90.06
2018-12-23T06:02:42.385Z,91.13
2018-12-23T06:03:42.372Z,90.92
2018-12-23T06:04:42.360Z,90.61
2018-12-23T06:05:42.377Z,89.58
2018-12-23T06:06:42.351Z,89.89
2018-12-23T06:07:42.328Z,89.89
2018-12-23T06:08:42.318Z,90.72
2018-12-23T06:09:42.304Z,91.24
2018-12-23T06:10:42.314Z,91.75
2018-12-23T06:11:42.281Z,92.78
2018-12-23T06:12:42.295Z,92.78
2018-12-23T06:13:42.258Z,92.78
2018-12-23T06:14:42.249Z,93.50
2018-12-23T06:15:42.265Z,93.30
2018-12-23T06:16:42.224Z,93.85
2018-12-23T06:17:42.216Z,93.96
2018-12-23T06:18:42.212Z,94.57
2018-12-23T06:19:42.191Z,93.65
2018-12-23T06:20:42.214Z,93.96
2018-12-23T06:21:42.170Z,94.37
2018-12-23T06:22:42.162Z,93.96
2018-12-23T06:23:42.147Z,93.96
2018-12-23T06:24:42.147Z,93.75
2018-12-23T06:25:42.126Z,93.96
2018-12-23T06:26:42.136Z,93.96
2018-12-23T06:27:42.108Z,94.68
2018-12-23T06:28:42.091Z,94.37
2018-12-23T06:29:42.081Z,94.89
2018-12-23T06:30:42.079Z,95.03
2018-12-23T06:31:42.082Z,95.09
2018-12-23T06:32:42.052Z,93.85
2018-12-23T06:33:42.045Z,93.96
2018-12-23T06:34:42.025Z,94.68
2018-12-23T06:35:42.012Z,93.49
2018-12-23T06:36:42.037Z,93.69
2018-12-23T06:37:41.991Z,94.62
2018-12-23T06:38:41.980Z,94.17
2018-12-23T06:39:41.968Z,94.00
2018-12-23T06:40:41.958Z,94.06
2018-12-23T06:41:41.981Z,94.17
2018-12-23T06:42:41.958Z,93.38
2018-12-23T06:43:41.923Z,94.06
2018-12-23T06:44:41.911Z,93.85
2018-12-23T06:45:41.901Z,93.34
2018-12-23T06:46:41.892Z,92.93
2018-12-23T06:47:41.901Z,92.97
2018-12-23T06:48:41.992Z,92.82
2018-12-23T06:49:41.856Z,93.34
2018-12-23T06:50:41.845Z,93.44
2018-12-23T06:51:41.835Z,93.13
2018-12-23T06:52:41.845Z,93.07
2018-12-23T06:53:41.815Z,92.82
2018-12-23T06:54:41.812Z,92.35
2018-12-23T06:55:41.788Z,93.24
2018-12-23T06:56:41.777Z,92.93
2018-12-23T06:57:41.790Z,92.93
2018-12-23T06:58:41.756Z,92.72
2018-12-23T06:59:41.745Z,92.82
2018-12-23T07:00:41.733Z,93.13
2018-12-23T07:01:41.731Z,92.93
2018-12-23T07:02:41.732Z,93.13
2018-12-23T07:03:41.704Z,93.09
2018-12-23T07:04:41.688Z,92.31
2018-12-23T07:05:41.682Z,92.21
2018-12-23T07:06:41.665Z,92.78
2018-12-23T07:07:41.704Z,92.16
2018-12-23T07:08:41.642Z,93.03
2018-12-23T07:09:41.634Z,91.69
2018-12-23T07:10:41.623Z,91.85
2018-12-23T07:11:41.622Z,92.00
2018-12-23T07:12:41.598Z,91.75
2018-12-23T07:13:41.618Z,92.21
2018-12-23T07:14:41.587Z,91.85
2018-12-23T07:15:41.576Z,91.96
2018-12-23T07:16:41.555Z,92.06
2018-12-23T07:17:41.554Z,91.79
2018-12-23T07:18:41.555Z,91.28
2018-12-23T07:19:41.522Z,91.79
2018-12-23T07:20:41.519Z,91.28
2018-12-23T07:21:41.529Z,91.79
2018-12-23T07:22:41.489Z,91.89
2018-12-23T07:23:41.516Z,92.00
2018-12-23T07:24:41.471Z,92.21
2018-12-23T07:25:41.454Z,93.03
2018-12-23T07:26:43.616Z,91.79
2018-12-23T07:27:41.443Z,91.44
2018-12-23T07:28:41.421Z,91.54
2018-12-23T07:29:41.430Z,91.75
2018-12-23T07:30:41.430Z,91.64
2018-12-23T07:31:41.386Z,91.89
2018-12-23T07:32:41.374Z,92.16
2018-12-23T07:33:41.396Z,91.69
2018-12-23T07:34:41.383Z,91.48
2018-12-23T07:35:41.342Z,91.48
2018-12-23T07:36:49.334Z,91.79
2018-12-23T07:37:42.317Z,92.16
2018-12-23T07:38:41.320Z,91.54
2018-12-23T07:39:41.342Z,91.58
2018-12-23T07:40:41.287Z,91.44
2018-12-23T07:41:41.280Z,93.03
2018-12-23T07:42:41.270Z,92.57
2018-12-23T07:43:41.253Z,91.75
2018-12-23T07:44:41.258Z,91.30
2018-12-23T07:45:41.269Z,91.24
2018-12-23T07:46:41.220Z,91.30
2018-12-23T07:47:41.206Z,91.40
2018-12-23T07:48:41.195Z,91.09
2018-12-23T07:49:41.183Z,90.57
2018-12-23T07:50:41.196Z,90.67
2018-12-23T07:51:41.178Z,90.47
2018-12-23T07:52:41.175Z,90.37
2018-12-23T07:53:41.139Z,90.88
2018-12-23T07:54:41.135Z,90.78
2018-12-23T07:55:41.143Z,90.88
2018-12-23T07:56:41.108Z,90.57
2018-12-23T07:57:41.108Z,90.26
2018-12-23T07:58:41.086Z,91.09
2018-12-23T07:59:41.074Z,90.57
2018-12-23T08:00:41.096Z,90.06
2018-12-23T08:01:41.052Z,90.67
2018-12-23T08:02:41.039Z,90.57
2018-12-23T08:03:41.036Z,90.99
2018-12-23T08:04:41.016Z,90.43
2018-12-23T08:05:41.043Z,90.22
2018-12-23T08:06:40.997Z,90.53
2018-12-23T08:07:40.984Z,89.75
2018-12-23T08:08:40.973Z,89.54
2018-12-23T08:09:40.975Z,90.22
2018-12-23T08:10:40.952Z,90.12
2018-12-23T08:11:40.963Z,89.85
2018-12-23T08:12:40.930Z,89.54
2018-12-23T08:13:40.919Z,90.57
2018-12-23T08:14:40.907Z,90.43
2018-12-23T08:15:40.901Z,90.64
2018-12-23T08:16:40.911Z,90.53
2018-12-23T08:17:40.875Z,90.43
2018-12-23T08:18:40.863Z,89.61
2018-12-23T08:19:40.854Z,90.12
2018-12-23T08:20:40.841Z,90.12
2018-12-23T08:21:40.877Z,90.12
2018-12-23T08:22:40.816Z,89.81
2018-12-23T08:23:40.805Z,88.84
2018-12-23T08:24:40.794Z,89.91
2018-12-23T08:25:40.788Z,89.61
2018-12-23T08:26:40.803Z,89.71
2018-12-23T08:27:40.778Z,89.91
2018-12-23T08:28:40.750Z,90.12
2018-12-23T08:29:40.738Z,89.71
2018-12-23T08:30:40.728Z,89.91
2018-12-23T08:31:40.715Z,89.91
2018-12-23T08:32:40.733Z,88.78
2018-12-23T08:33:40.714Z,90.12
2018-12-23T08:34:40.683Z,89.61
2018-12-23T08:35:40.674Z,89.81
2018-12-23T08:36:40.661Z,90.43
2018-12-23T08:37:44.602Z,89.67
2018-12-23T08:38:40.637Z,89.56
2018-12-23T08:39:40.633Z,89.56
2018-12-23T08:40:40.619Z,89.87
2018-12-23T08:41:40.607Z,89.77
2018-12-23T08:42:40.619Z,91.00
2018-12-23T08:43:40.583Z,90.08
2018-12-23T08:44:40.576Z,89.67
2018-12-23T08:45:40.575Z,89.05
2018-12-23T08:46:40.552Z,89.46
2018-12-23T08:47:40.564Z,89.56
2018-12-23T08:48:40.527Z,88.84
2018-12-23T08:49:40.519Z,88.84
2018-12-23T08:50:40.526Z,89.87
2018-12-23T08:51:40.509Z,89.67
2018-12-23T08:52:40.507Z,89.77
2018-12-23T08:53:40.475Z,89.77
2018-12-23T08:54:40.461Z,90.39
2018-12-23T08:55:40.451Z,90.55
2018-12-23T08:56:40.439Z,89.77
2018-12-23T08:57:40.473Z,90.18
2018-12-23T08:58:40.417Z,90.03
2018-12-23T08:59:40.408Z,90.14
2018-12-23T09:00:40.398Z,89.11
2018-12-23T09:01:40.397Z,88.59
2018-12-23T09:02:40.373Z,89.58
2018-12-23T09:03:40.401Z,89.69
2018-12-23T09:04:40.351Z,89.48
2018-12-23T09:05:40.339Z,88.90
2018-12-23T09:06:40.332Z,88.76
2018-12-23T09:07:40.318Z,88.59
2018-12-23T09:08:40.338Z,88.86
2018-12-23T09:09:40.301Z,88.56
2018-12-23T09:10:40.285Z,87.94
2018-12-23T09:11:42.950Z,88.76
2018-12-23T09:12:40.263Z,88.45
2018-12-23T09:13:40.275Z,88.35
2018-12-23T09:14:40.241Z,89.17
2018-12-23T09:15:40.260Z,88.76
2018-12-23T09:16:40.283Z,88.86
2018-12-23T09:17:40.206Z,89.17
2018-12-23T09:18:40.223Z,88.86
2018-12-23T09:19:40.188Z,88.04
2018-12-23T09:20:40.176Z,88.35
2018-12-23T09:21:40.175Z,88.04
2018-12-23T09:22:40.157Z,88.35
2018-12-23T09:23:40.167Z,88.66
2018-12-23T09:24:40.131Z,89.89
2018-12-23T09:25:40.120Z,89.79
2018-12-23T09:26:40.109Z,88.35
2018-12-23T09:27:40.109Z,88.66
2018-12-23T09:28:40.129Z,88.31
2018-12-23T09:29:40.074Z,88.51
2018-12-23T09:30:40.065Z,88.56
2018-12-23T09:31:40.060Z,88.56
2018-12-23T09:32:40.044Z,88.56
2018-12-23T09:33:40.067Z,88.24
2018-12-23T09:34:40.035Z,88.04
2018-12-23T09:35:40.011Z,88.10
2018-12-23T09:36:39.999Z,87.69
2018-12-23T09:37:39.989Z,87.24
2018-12-23T09:38:39.975Z,86.87
2018-12-23T09:39:39.988Z,86.11
2018-12-23T09:40:39.968Z,86.83
2018-12-23T09:41:39.942Z,86.93
2018-12-23T09:42:39.936Z,86.87
2018-12-23T09:43:39.922Z,87.38
2018-12-23T09:44:39.934Z,87.34
2018-12-23T09:45:39.932Z,86.77
2018-12-23T09:46:39.888Z,86.77
2018-12-23T09:47:39.876Z,86.56
2018-12-23T09:48:39.887Z,86.52
2018-12-23T09:49:39.875Z,86.83
2018-12-23T09:50:39.843Z,86.11
2018-12-23T09:51:39.841Z,86.93
2018-12-23T09:52:39.819Z,86.21
2018-12-23T09:53:39.807Z,85.80
2018-12-23T09:54:39.821Z,85.60
2018-12-23T09:55:39.787Z,86.52
2018-12-23T09:56:39.786Z,85.28
2018-12-23T09:57:39.764Z,85.66
2018-12-23T09:58:39.751Z,85.55
2018-12-23T09:59:39.943Z,85.86
2018-12-23T10:00:39.729Z,86.07
2018-12-23T10:01:39.717Z,86.85
2018-12-23T10:02:39.715Z,85.76
2018-12-23T10:03:39.699Z,85.55
2018-12-23T10:04:39.696Z,86.07
2018-12-23T10:05:39.697Z,85.55
2018-12-23T10:06:39.661Z,86.58
2018-12-23T10:07:39.653Z,85.35
2018-12-23T10:08:39.652Z,85.97
2018-12-23T10:09:39.631Z,85.76
2018-12-23T10:10:39.641Z,85.76
2018-12-23T10:11:39.606Z,85.55
2018-12-23T10:12:39.595Z,86.07
2018-12-23T10:13:39.583Z,85.97
2018-12-23T10:14:39.591Z,86.58
2018-12-23T10:15:39.588Z,86.65
2018-12-23T10:16:39.553Z,86.33
2018-12-23T10:17:39.539Z,85.41
2018-12-23T10:18:39.526Z,86.38
2018-12-23T10:19:39.515Z,86.27
2018-12-23T10:20:39.540Z,85.86
2018-12-23T10:21:39.496Z,85.86
2018-12-23T10:22:39.485Z,85.76
2018-12-23T10:23:39.473Z,86.17
2018-12-23T10:24:39.459Z,86.17
2018-12-23T10:25:39.476Z,85.93
2018-12-23T10:26:39.445Z,85.55
2018-12-23T10:27:39.425Z,86.48
2018-12-23T10:28:39.414Z,86.13
2018-12-23T10:29:39.418Z,85.76
2018-12-23T10:30:39.392Z,85.66
2018-12-23T10:31:39.409Z,85.46
2018-12-23T10:32:39.382Z,86.52
2018-12-23T10:33:39.359Z,86.21
2018-12-23T10:34:39.354Z,86.93
2018-12-23T10:35:39.338Z,86.52
2018-12-23T10:36:39.347Z,86.17
2018-12-23T10:37:39.315Z,85.76
2018-12-23T10:38:39.318Z,86.00
2018-12-23T10:39:39.294Z,86.42
2018-12-23T10:40:39.281Z,86.68
2018-12-23T10:41:39.571Z,86.89
2018-12-23T10:42:39.257Z,86.07
2018-12-23T10:43:39.249Z,85.66
2018-12-23T10:44:39.385Z,85.46
2018-12-23T10:45:39.223Z,85.90
2018-12-23T10:46:39.215Z,86.48
2018-12-23T10:47:39.223Z,85.97
2018-12-23T10:48:39.192Z,85.66
2018-12-23T10:49:39.181Z,85.97
2018-12-23T10:50:39.175Z,85.35
2018-12-23T10:51:39.157Z,85.46
2018-12-23T10:52:39.176Z,85.46
2018-12-23T10:53:39.135Z,85.97
2018-12-23T10:54:39.125Z,85.55
2018-12-23T10:55:39.114Z,85.76
2018-12-23T10:56:39.105Z,84.84
2018-12-23T10:57:39.127Z,85.31
2018-12-23T10:58:39.096Z,84.69
2018-12-23T10:59:39.077Z,85.52
2018-12-23T11:00:39.060Z,85.11
2018-12-23T11:01:39.058Z,83.98
2018-12-23T11:02:39.080Z,83.87
2018-12-23T11:03:39.024Z,84.18
2018-12-23T11:04:39.017Z,84.08
2018-12-23T11:05:39.002Z,83.29
2018-12-23T11:06:38.990Z,85.31
2018-12-23T11:07:39.003Z,85.14
2018-12-23T11:08:38.992Z,84.18
2018-12-23T11:09:38.962Z,84.59
2018-12-23T11:10:38.949Z,85.31
2018-12-23T11:11:38.934Z,84.39
2018-12-23T11:12:38.948Z,85.52
2018-12-23T11:13:38.920Z,84.39
2018-12-23T11:14:38.914Z,85.11
2018-12-23T11:15:38.890Z,83.36
2018-12-23T11:16:38.881Z,83.56
2018-12-23T11:17:38.895Z,83.67
2018-12-23T11:18:38.859Z,84.59
2018-12-23T11:19:38.845Z,84.08
2018-12-23T11:20:38.861Z,85.62
2018-12-23T11:21:38.824Z,85.72
2018-12-23T11:22:38.835Z,85.72
2018-12-23T11:23:38.802Z,86.79
2018-12-23T11:24:38.803Z,87.82
2018-12-23T11:25:38.785Z,88.12
2018-12-23T11:26:38.813Z,88.64
2018-12-23T11:27:38.770Z,89.46
2018-12-23T11:28:38.775Z,89.60
2018-12-23T11:29:38.734Z,89.60
2018-12-23T11:30:38.721Z,90.16
2018-12-23T11:31:38.710Z,90.73
2018-12-23T11:32:38.699Z,90.12
2018-12-23T11:33:38.713Z,90.26
2018-12-23T11:34:38.717Z,89.95
2018-12-23T11:35:38.670Z,90.47
2018-12-23T11:36:38.660Z,90.98
2018-12-23T11:37:38.648Z,92.01
2018-12-23T11:38:38.656Z,92.01
2018-12-23T11:39:38.634Z,92.93
2018-12-23T11:40:38.617Z,92.01
2018-12-23T11:41:38.605Z,92.21
2018-12-23T11:42:38.597Z,92.01
2018-12-23T11:43:38.609Z,91.39
2018-12-23T11:44:38.569Z,92.05
2018-12-23T11:45:38.560Z,92.82
2018-12-23T11:46:38.563Z,92.67
2018-12-23T11:47:38.556Z,93.12
2018-12-23T11:48:38.569Z,92.87
2018-12-23T11:49:38.517Z,92.87
2018-12-23T11:50:38.499Z,93.55
2018-12-23T11:51:38.488Z,93.49
2018-12-23T11:52:38.500Z,92.87
2018-12-23T11:53:38.514Z,93.59
2018-12-23T11:54:38.467Z,93.29
2018-12-23T11:55:38.468Z,93.08
2018-12-23T11:56:38.456Z,93.23
2018-12-23T11:57:38.428Z,93.39
2018-12-23T11:58:38.451Z,93.74
2018-12-23T11:59:38.443Z,93.84
2018-12-23T12:00:38.402Z,94.46
2018-12-23T12:01:38.472Z,94.87
2018-12-23T12:02:38.370Z,94.77
2018-12-23T12:03:38.531Z,94.36
2018-12-23T12:04:38.385Z,94.93
2018-12-23T12:05:38.360Z,93.80
2018-12-23T12:06:38.324Z,94.21
2018-12-23T12:07:38.323Z,93.90
2018-12-23T12:08:43.749Z,94.62
2018-12-23T12:09:39.313Z,94.42
2018-12-23T12:10:38.279Z,94.21
2018-12-23T12:11:38.293Z,93.90
2018-12-23T12:12:38.294Z,93.08
2018-12-23T12:13:38.249Z,93.49
2018-12-23T12:14:38.262Z,93.80
2018-12-23T12:15:38.230Z,93.70
2018-12-23T12:16:38.214Z,94.11
2018-12-23T12:17:38.209Z,93.64
2018-12-23T12:18:38.207Z,94.62
2018-12-23T12:19:38.242Z,93.70
2018-12-23T12:20:38.175Z,94.21
2018-12-23T12:21:38.182Z,94.62
2018-12-23T12:22:38.148Z,94.01
2018-12-23T12:23:38.138Z,94.52
2018-12-23T12:24:38.151Z,94.52
2018-12-23T12:25:38.123Z,93.80
2018-12-23T12:26:38.138Z,93.70
2018-12-23T12:27:38.123Z,93.80
2018-12-23T12:28:38.086Z,94.83
2018-12-23T12:29:38.097Z,94.62
2018-12-23T12:30:38.060Z,93.70
2018-12-23T12:31:38.053Z,94.67
2018-12-23T12:32:38.041Z,94.11
2018-12-23T12:33:38.065Z,93.80
2018-12-23T12:34:38.058Z,94.31
2018-12-23T12:35:38.014Z,94.36
2018-12-23T12:36:37.993Z,94.52
2018-12-23T12:37:37.987Z,94.42
2018-12-23T12:38:37.979Z,94.93
2018-12-23T12:39:37.969Z,94.73
2018-12-23T12:40:37.977Z,94.52
2018-12-23T12:41:37.943Z,94.52
2018-12-23T12:42:37.952Z,93.70
2018-12-23T12:43:37.920Z,94.11
2018-12-23T12:44:37.911Z,94.11
2018-12-23T12:45:37.929Z,93.59
2018-12-23T12:46:37.903Z,94.73
2018-12-23T12:47:37.873Z,94.62
2018-12-23T12:48:37.881Z,93.80
2018-12-23T12:49:37.859Z,93.59
2018-12-23T12:50:37.910Z,94.11
2018-12-23T12:51:37.839Z,94.73
2018-12-23T12:52:37.818Z,94.42